Time;durP1;ratioP1;P1;durP2;ratioP2;P2;SDS_P1;SDS_P2;PMS_P1;PMS_P2;Temp;Humidity;BMP_temperature;BMP_pressure;BME280_temperature;BME280_humidity;BME280_pressure;Samples;Min_cycle;Max_cycle;Signal;HPM_P1;HPM_P2
2022/06/08 00:00:11;;;;;;;0.00;0.00;;;19.60;99.90;;;;;;5013751;28;20193;-76
2022/06/08 00:02:41;;;;;;;0.00;0.00;;;19.60;99.90;;;;;;5018236;28;20226;-76
2022/06/08 00:05:09;;;;;;;0.00;0.00;;;19.50;99.90;;;;;;5025022;28;20230;-76
2022/06/08 00:07:35;;;;;;;0.00;0.00;;;19.50;99.90;;;;;;5021839;28;20222;-76
2022/06/08 00:10:04;;;;;;;0.00;0.00;;;19.50;99.90;;;;;;5022560;28;20231;-76
2022/06/08 00:12:31;;;;;;;0.00;0.00;;;19.50;99.90;;;;;;5017921;28;20224;-76
2022/06/08 00:14:58;;;;;;;0.00;0.00;;;19.50;99.90;;;;;;5022821;28;20750;-76
2022/06/08 00:17:26;;;;;;;0.00;0.00;;;19.50;99.90;;;;;;5010658;28;20201;-76
2022/06/08 00:19:54;;;;;;;0.00;0.00;;;19.50;99.90;;;;;;5017383;28;20295;-76
2022/06/08 00:22:21;;;;;;;0.00;0.00;;;19.40;99.90;;;;;;5014216;28;20229;-76
2022/06/08 00:24:48;;;;;;;0.00;0.00;;;19.40;99.90;;;;;;5016063;28;20206;-77
2022/06/08 00:27:15;;;;;;;0.00;0.00;;;19.30;99.90;;;;;;5017625;28;20207;-76
2022/06/08 00:29:43;;;;;;;0.00;0.00;;;19.20;99.90;;;;;;5023474;28;20223;-76
2022/06/08 00:32:11;;;;;;;0.00;0.00;;;19.20;99.90;;;;;;5020948;28;20779;-76
2022/06/08 00:34:40;;;;;;;0.00;0.00;;;19.10;99.90;;;;;;5015693;28;20209;-76
2022/06/08 00:37:07;;;;;;;0.00;0.00;;;19.20;99.90;;;;;;5012988;28;20623;-76
2022/06/08 00:39:34;;;;;;;0.00;0.00;;;19.10;99.90;;;;;;5021904;28;20206;-76
2022/06/08 00:42:04;;;;;;;0.00;0.00;;;19.10;99.90;;;;;;5015779;28;20216;-76
2022/06/08 00:44:35;;;;;;;0.00;0.00;;;19.10;99.90;;;;;;5014901;28;20684;-76
2022/06/08 00:47:05;;;;;;;0.00;0.00;;;19.10;99.90;;;;;;5015424;28;20287;-76
2022/06/08 00:49:36;;;;;;;0.00;0.00;;;19.10;99.90;;;;;;5009152;28;20584;-77
2022/06/08 00:52:06;;;;;;;0.00;0.00;;;19.10;99.90;;;;;;5010116;28;20266;-76
2022/06/08 00:54:37;;;;;;;0.00;0.00;;;19.10;99.90;;;;;;5013566;28;20200;-76
2022/06/08 00:57:09;;;;;;;0.00;0.00;;;19.10;99.90;;;;;;5016295;28;20204;-77
2022/06/08 00:59:38;;;;;;;0.00;0.00;;;19.10;99.90;;;;;;5021865;28;20199;-76
2022/06/08 01:02:05;;;;;;;0.00;0.00;;;19.10;99.90;;;;;;5021679;28;20219;-76
2022/06/08 01:04:34;;;;;;;0.00;0.00;;;19.00;99.90;;;;;;5016558;28;20740;-76
2022/06/08 01:07:02;;;;;;;0.00;0.00;;;19.00;99.90;;;;;;5019051;28;20196;-76
2022/06/08 01:09:36;;;;;;;0.00;0.00;;;19.00;99.90;;;;;;5018460;28;20288;-76
2022/06/08 01:12:10;;;;;;;0.00;0.00;;;19.00;99.90;;;;;;5018185;28;20226;-76
2022/06/08 01:14:41;;;;;;;0.00;0.00;;;18.90;99.90;;;;;;5011836;28;20196;-76
2022/06/08 01:17:13;;;;;;;0.00;0.00;;;18.90;99.90;;;;;;5018540;28;20200;-76
2022/06/08 01:19:44;;;;;;;0.00;0.00;;;18.90;99.90;;;;;;5024596;28;20206;-76
2022/06/08 01:22:14;;;;;;;0.00;0.00;;;18.90;99.90;;;;;;5015094;28;20737;-76
2022/06/08 01:24:50;;;;;;;0.00;0.00;;;18.80;99.90;;;;;;5012843;28;20196;-76
2022/06/08 01:27:30;;;;;;;0.00;0.00;;;18.80;99.90;;;;;;5014782;28;20250;-76
2022/06/08 01:30:14;;;;;;;0.00;0.00;;;18.80;99.90;;;;;;5019988;28;20265;-76
2022/06/08 01:33:20;;;;;;;0.00;0.00;;;18.70;99.90;;;;;;5012383;28;20207;-76
2022/06/08 01:35:57;;;;;;;0.00;0.00;;;18.70;99.90;;;;;;5022655;28;20507;-76
2022/06/08 01:38:34;;;;;;;0.00;0.00;;;18.70;99.90;;;;;;5022022;28;20204;-77
2022/06/08 01:41:20;;;;;;;0.00;0.00;;;18.70;99.90;;;;;;5009349;28;20215;-76
2022/06/08 01:43:58;;;;;;;0.00;0.00;;;18.70;99.90;;;;;;5011682;28;20197;-76
2022/06/08 01:46:29;;;;;;;0.00;0.00;;;18.70;99.90;;;;;;5020109;28;20196;-76
2022/06/08 01:49:15;;;;;;;0.00;0.00;;;18.70;99.90;;;;;;5011999;28;20270;-76
2022/06/08 01:51:52;;;;;;;0.00;0.00;;;18.70;99.90;;;;;;5019103;28;20232;-76
2022/06/08 01:54:39;;;;;;;0.00;0.00;;;18.70;99.90;;;;;;5020324;28;20203;-76
2022/06/08 01:57:15;;;;;;;0.00;0.00;;;18.70;99.90;;;;;;5014096;28;20197;-76
2022/06/08 01:59:48;;;;;;;0.00;0.00;;;18.70;99.90;;;;;;5011583;28;20210;-76
2022/06/08 02:02:28;;;;;;;0.00;0.00;;;18.70;99.90;;;;;;5020749;28;20225;-76
2022/06/08 02:05:00;;;;;;;0.00;0.00;;;18.70;99.90;;;;;;5011224;28;20250;-76
2022/06/08 02:07:39;;;;;;;0.00;0.00;;;18.60;99.90;;;;;;5014161;28;20205;-76
2022/06/08 02:10:17;;;;;;;0.00;0.00;;;18.60;99.90;;;;;;5015097;28;20227;-76
2022/06/08 02:12:58;;;;;;;0.00;0.00;;;18.60;99.90;;;;;;5004552;28;20760;-76
2022/06/08 02:15:33;;;;;;;0.00;0.00;;;18.60;99.90;;;;;;5013676;28;20212;-76
2022/06/08 02:18:07;;;;;;;0.00;0.00;;;18.60;99.90;;;;;;5022393;28;20208;-76
2022/06/08 02:20:46;;;;;;;0.00;0.00;;;18.60;99.90;;;;;;5016871;28;20208;-76
2022/06/08 02:23:19;;;;;;;0.00;0.00;;;18.60;99.90;;;;;;5021713;28;20226;-76
2022/06/08 02:25:54;;;;;;;0.00;0.00;;;18.50;99.90;;;;;;5004882;28;20201;-76
2022/06/08 02:28:25;;;;;;;0.00;0.00;;;18.50;99.90;;;;;;5013305;28;20196;-76
2022/06/08 02:30:56;;;;;;;0.00;0.00;;;18.50;99.90;;;;;;5022121;28;20223;-77
2022/06/08 02:36:16;;;;;;;0.00;0.00;;;18.50;99.90;;;;;;4989864;28;20205;-76
2022/06/08 02:38:50;;;;;;;0.00;0.00;;;18.50;99.90;;;;;;4993773;28;20202;-76
2022/06/08 02:41:21;;;;;;;0.00;0.00;;;18.50;99.90;;;;;;4988334;28;20311;-76
2022/06/08 02:43:52;;;;;;;0.00;0.00;;;18.50;99.90;;;;;;5001227;28;20559;-76
2022/06/08 02:46:31;;;;;;;0.00;0.00;;;18.50;99.90;;;;;;5000980;28;20205;-76
2022/06/08 02:49:04;;;;;;;0.00;0.00;;;18.50;99.90;;;;;;4997280;28;20200;-76
2022/06/08 02:51:34;;;;;;;0.00;0.00;;;18.50;99.90;;;;;;5001672;28;20332;-77
2022/06/08 02:54:05;;;;;;;0.00;0.00;;;18.50;99.90;;;;;;4997041;28;20212;-76
2022/06/08 02:57:03;;;;;;;0.00;0.00;;;18.50;99.90;;;;;;4991392;28;20201;-76
2022/06/08 02:59:39;;;;;;;0.00;0.00;;;18.50;99.90;;;;;;4990060;28;20201;-76
2022/06/08 03:02:12;;;;;;;0.00;0.00;;;18.50;99.90;;;;;;4992646;28;20626;-76
2022/06/08 03:04:46;;;;;;;0.00;0.00;;;18.50;99.90;;;;;;4999526;28;20287;-76
2022/06/08 03:07:18;;;;;;;0.00;0.00;;;18.50;99.90;;;;;;4995250;28;20264;-76
2022/06/08 03:09:48;;;;;;;0.00;0.00;;;18.50;99.90;;;;;;5005829;28;20197;-76
2022/06/08 03:12:24;;;;;;;0.00;0.00;;;18.50;99.90;;;;;;4995055;28;20316;-76
2022/06/08 03:14:51;;;;;;;0.00;0.00;;;18.40;99.90;;;;;;4996132;28;20224;-76
2022/06/08 03:17:24;;;;;;;0.00;0.00;;;18.40;99.90;;;;;;4994825;28;20925;-76
2022/06/08 03:19:51;;;;;;;0.00;0.00;;;18.50;99.90;;;;;;4992781;28;20209;-76
2022/06/08 03:22:19;;;;;;;0.00;0.00;;;18.50;99.90;;;;;;4990857;28;20218;-76
2022/06/08 03:24:46;;;;;;;0.00;0.00;;;18.50;99.90;;;;;;4997477;28;20651;-76
2022/06/08 03:27:14;;;;;;;0.00;0.00;;;18.50;99.90;;;;;;4999676;28;20703;-76
2022/06/08 03:29:46;;;;;;;0.00;0.00;;;18.50;99.90;;;;;;4994080;28;20681;-76
2022/06/08 03:32:13;;;;;;;0.00;0.00;;;18.50;99.90;;;;;;5001028;28;20237;-76
2022/06/08 03:34:41;;;;;;;0.00;0.00;;;18.50;99.90;;;;;;4993067;28;20201;-76
2022/06/08 03:37:09;;;;;;;0.00;0.00;;;18.60;99.90;;;;;;4995890;28;20272;-76
2022/06/08 03:39:40;;;;;;;0.00;0.00;;;18.60;99.90;;;;;;4995556;28;20287;-76
2022/06/08 03:42:08;;;;;;;0.00;0.00;;;18.60;99.90;;;;;;5003940;28;20243;-76
2022/06/08 03:44:36;;;;;;;0.00;0.00;;;18.60;99.90;;;;;;4999696;28;20223;-76
2022/06/08 03:47:08;;;;;;;0.00;0.00;;;18.70;99.90;;;;;;4996112;28;20233;-76
2022/06/08 03:49:35;;;;;;;0.00;0.00;;;18.70;99.90;;;;;;4999669;28;20196;-76
2022/06/08 03:52:04;;;;;;;0.00;0.00;;;18.80;99.90;;;;;;5005534;28;20224;-76
2022/06/08 03:54:37;;;;;;;0.00;0.00;;;18.80;99.90;;;;;;4999124;28;20212;-76
2022/06/08 03:57:06;;;;;;;0.00;0.00;;;18.80;99.90;;;;;;4991980;28;20212;-76
2022/06/08 03:59:34;;;;;;;0.00;0.00;;;18.70;99.90;;;;;;4993142;28;20201;-76
2022/06/08 04:02:04;;;;;;;0.00;0.00;;;18.70;99.90;;;;;;4991225;28;20730;-76
2022/06/08 04:04:33;;;;;;;0.00;0.00;;;18.80;99.90;;;;;;4994355;28;20212;-77
2022/06/08 04:07:00;;;;;;;0.00;0.00;;;18.90;99.90;;;;;;4997212;28;20201;-76
2022/06/08 04:09:28;;;;;;;0.00;0.00;;;19.00;99.90;;;;;;4996931;28;20201;-76
2022/06/08 04:11:56;;;;;;;0.00;0.00;;;19.00;99.90;;;;;;4990716;28;20221;-76
2022/06/08 04:14:23;;;;;;;0.00;0.00;;;19.00;99.90;;;;;;4994265;28;20207;-76
2022/06/08 04:16:51;;;;;;;0.00;0.00;;;19.10;99.90;;;;;;5003715;28;20669;-76
2022/06/08 04:19:24;;;;;;;0.00;0.00;;;19.20;99.90;;;;;;4999902;28;20205;-76
2022/06/08 04:21:51;;;;;;;0.00;0.00;;;19.40;99.90;;;;;;4995639;28;20276;-76
2022/06/08 04:24:20;;;;;;;0.00;0.00;;;19.70;99.90;;;;;;4993081;28;20695;-76
2022/06/08 04:26:58;;;;;;;0.00;0.00;;;19.90;99.90;;;;;;4991780;28;20196;-78
2022/06/08 04:29:31;;;;;;;0.00;0.00;;;20.00;99.90;;;;;;4989726;28;20192;-78
2022/06/08 04:32:02;;;;;;;0.00;0.00;;;19.90;99.90;;;;;;4991858;28;20238;-77
2022/06/08 04:34:31;;;;;;;0.00;0.00;;;19.90;99.90;;;;;;5001361;28;20201;-77
2022/06/08 04:36:59;;;;;;;0.00;0.00;;;19.80;99.90;;;;;;5004204;28;20204;-77
2022/06/08 04:39:36;;;;;;;0.00;0.00;;;19.80;99.90;;;;;;5002311;28;20231;-79
2022/06/08 04:42:04;;;;;;;0.00;0.00;;;20.10;99.90;;;;;;4997823;28;20289;-78
2022/06/08 04:44:36;;;;;;;0.00;0.00;;;20.30;99.90;;;;;;4993869;28;20259;-77
2022/06/08 04:47:08;;;;;;;0.00;0.00;;;20.50;99.90;;;;;;4995878;28;20193;-77
2022/06/08 04:49:38;;;;;;;0.00;0.00;;;20.70;99.90;;;;;;4994569;28;20316;-77
2022/06/08 04:52:08;;;;;;;0.00;0.00;;;21.00;99.90;;;;;;4996765;28;20292;-77
2022/06/08 04:54:35;;;;;;;0.00;0.00;;;21.20;99.90;;;;;;4995951;28;20291;-78
2022/06/08 04:57:02;;;;;;;0.00;0.00;;;21.40;99.90;;;;;;4993889;28;20212;-78
2022/06/08 04:59:30;;;;;;;0.00;0.00;;;21.50;99.90;;;;;;4998450;28;20204;-78
2022/06/08 05:02:07;;;;;;;0.00;0.00;;;21.70;99.90;;;;;;4992059;28;20215;-78
2022/06/08 05:04:35;;;;;;;0.00;0.00;;;21.70;99.90;;;;;;4999775;28;20200;-78
2022/06/08 05:07:04;;;;;;;0.00;0.00;;;21.60;99.90;;;;;;4996343;28;20220;-79
2022/06/08 05:09:32;;;;;;;0.00;0.00;;;21.80;99.90;;;;;;5000867;28;20678;-78
2022/06/08 05:11:59;;;;;;;0.00;0.00;;;21.80;99.90;;;;;;4991145;28;20267;-78
2022/06/08 05:14:27;;;;;;;0.00;0.00;;;21.70;99.90;;;;;;4989735;28;20198;-77
2022/06/08 05:16:56;;;;;;;0.00;0.00;;;21.50;99.90;;;;;;4986472;28;20205;-79
2022/06/08 05:19:24;;;;;;;0.00;0.00;;;21.40;99.90;;;;;;4992032;28;20639;-78
2022/06/08 05:21:51;;;;;;;0.00;0.00;;;21.30;99.90;;;;;;4999156;28;20231;-78
2022/06/08 05:24:24;;;;;;;0.00;0.00;;;21.10;99.90;;;;;;4994693;28;20201;-78
2022/06/08 05:26:53;;;;;;;0.00;0.00;;;21.10;99.90;;;;;;4990146;28;20208;-78
2022/06/08 05:29:21;;;;;;;0.00;0.00;;;21.00;99.90;;;;;;4995946;28;20204;-77
2022/06/08 05:31:53;;;;;;;0.00;0.00;;;21.00;99.90;;;;;;4994239;28;20323;-77
2022/06/08 05:34:20;;;;;;;0.00;0.00;;;20.90;99.90;;;;;;4992253;28;20211;-77
2022/06/08 05:36:47;;;;;;;0.00;0.00;;;20.90;99.90;;;;;;4996881;28;20220;-77
2022/06/08 05:39:20;;;;;;;0.00;0.00;;;20.90;99.90;;;;;;4997725;28;20205;-77
2022/06/08 05:41:48;;;;;;;0.00;0.00;;;20.80;99.90;;;;;;4994537;28;20212;-78
2022/06/08 05:44:20;;;;;;;0.00;0.00;;;20.90;99.90;;;;;;4997590;28;20268;-77
2022/06/08 05:46:51;;;;;;;0.00;0.00;;;20.90;99.90;;;;;;4995411;28;20229;-77
2022/06/08 05:49:18;;;;;;;0.00;0.00;;;20.90;99.90;;;;;;4992533;28;20753;-77
2022/06/08 05:51:48;;;;;;;0.00;0.00;;;20.90;99.90;;;;;;4996366;28;20628;-77
2022/06/08 05:54:19;;;;;;;0.00;0.00;;;20.90;99.90;;;;;;5001853;28;20205;-77
2022/06/08 05:56:46;;;;;;;0.00;0.00;;;20.90;99.90;;;;;;4995989;28;20216;-77
2022/06/08 05:59:15;;;;;;;0.00;0.00;;;20.90;99.90;;;;;;4991816;28;20284;-77
2022/06/08 06:01:43;;;;;;;0.00;0.00;;;20.90;99.90;;;;;;4995641;28;20224;-77
2022/06/08 06:04:10;;;;;;;0.00;0.00;;;20.80;99.90;;;;;;4991572;28;20284;-77
2022/06/08 06:06:43;;;;;;;0.00;0.00;;;20.80;99.90;;;;;;4998334;28;20243;-78
2022/06/08 06:09:11;;;;;;;0.00;0.00;;;20.80;99.90;;;;;;4992449;28;20201;-77
2022/06/08 06:11:38;;;;;;;0.00;0.00;;;20.80;99.90;;;;;;4992211;28;20221;-77
2022/06/08 06:14:06;;;;;;;0.00;0.00;;;20.80;99.90;;;;;;4991377;28;20197;-77
2022/06/08 06:16:36;;;;;;;0.00;0.00;;;20.80;99.90;;;;;;4995028;28;20220;-77
2022/06/08 06:19:04;;;;;;;0.00;0.00;;;20.80;99.90;;;;;;4992744;28;20202;-78
2022/06/08 06:21:48;;;;;;;0.00;0.00;;;20.90;99.90;;;;;;4990603;28;20304;-78
2022/06/08 06:24:23;;;;;;;0.00;0.00;;;21.10;99.90;;;;;;4992676;28;20200;-78
2022/06/08 06:27:09;;;;;;;0.00;0.00;;;21.50;99.90;;;;;;4997875;28;20271;-78
2022/06/08 06:30:15;;;;;;;0.00;0.00;;;22.00;99.90;;;;;;4993044;28;20354;-78
2022/06/08 06:32:48;;;;;;;0.00;0.00;;;22.40;99.90;;;;;;4989876;28;20253;-78
2022/06/08 06:35:21;;;;;;;0.00;0.00;;;22.50;99.90;;;;;;4991945;28;20204;-78
2022/06/08 06:37:49;;;;;;;0.00;0.00;;;22.60;99.90;;;;;;4997422;28;20250;-77
2022/06/08 06:40:16;;;;;;;0.00;0.00;;;22.50;99.90;;;;;;4995624;28;20223;-76
2022/06/08 06:42:46;;;;;;;0.00;0.00;;;22.40;99.90;;;;;;5000874;28;20259;-76
2022/06/08 06:45:36;;;;;;;0.00;0.00;;;22.20;99.90;;;;;;4996665;28;20203;-76
2022/06/08 06:48:09;;;;;;;0.00;0.00;;;21.90;99.90;;;;;;4993107;28;20196;-76
2022/06/08 06:50:38;;;;;;;0.00;0.00;;;21.80;99.90;;;;;;5000142;28;20216;-78
2022/06/08 06:53:05;;;;;;;0.00;0.00;;;21.80;99.90;;;;;;4996863;28;20228;-76
2022/06/08 06:55:35;;;;;;;0.00;0.00;;;21.70;99.90;;;;;;4988292;28;20204;-77
2022/06/08 06:58:10;;;;;;;0.00;0.00;;;21.60;99.90;;;;;;4998063;28;20259;-76
2022/06/08 07:00:37;;;;;;;0.00;0.00;;;21.50;99.90;;;;;;4995065;28;20217;-79
2022/06/08 07:03:10;;;;;;;0.00;0.00;;;21.50;99.90;;;;;;5002203;28;20200;-76
2022/06/08 07:05:39;;;;;;;0.00;0.00;;;21.50;99.90;;;;;;5000151;28;20192;-76
2022/06/08 07:08:07;;;;;;;0.00;0.00;;;21.50;99.90;;;;;;4993833;28;20262;-76
2022/06/08 07:10:37;;;;;;;0.00;0.00;;;21.60;99.90;;;;;;4991631;28;20236;-77
2022/06/08 07:13:04;;;;;;;0.00;0.00;;;21.70;99.90;;;;;;4989474;28;20213;-76
2022/06/08 07:15:31;;;;;;;0.00;0.00;;;21.70;99.90;;;;;;4986507;28;20205;-76
2022/06/08 07:17:59;;;;;;;0.00;0.00;;;21.70;99.90;;;;;;4994909;28;20205;-76
2022/06/08 07:20:31;;;;;;;0.00;0.00;;;21.70;99.90;;;;;;4998376;28;20197;-76
2022/06/08 07:22:58;;;;;;;0.00;0.00;;;21.80;99.90;;;;;;4995575;28;20220;-76
2022/06/08 07:25:26;;;;;;;0.00;0.00;;;21.90;99.90;;;;;;4986917;28;20201;-76
2022/06/08 07:27:53;;;;;;;0.00;0.00;;;22.00;99.90;;;;;;4998675;28;20232;-76
2022/06/08 07:30:20;;;;;;;0.00;0.00;;;22.10;99.90;;;;;;5001646;28;20196;-77
2022/06/08 07:32:47;;;;;;;0.00;0.00;;;22.50;99.90;;;;;;4998273;28;20241;-77
2022/06/08 07:35:14;;;;;;;0.00;0.00;;;22.90;99.90;;;;;;4997952;28;20216;-76
2022/06/08 07:37:42;;;;;;;0.00;0.00;;;23.10;99.90;;;;;;4999891;28;20201;-76
2022/06/08 07:40:10;;;;;;;0.00;0.00;;;23.10;99.90;;;;;;5018445;28;20316;-76
2022/06/08 07:42:37;;;;;;;0.00;0.00;;;23.30;99.90;;;;;;5003222;28;20292;-76
2022/06/08 07:45:06;;;;;;;0.00;0.00;;;23.50;99.90;;;;;;4997493;28;20291;-76
2022/06/08 07:47:33;;;;;;;0.00;0.00;;;23.80;99.90;;;;;;4993299;28;20662;-76
2022/06/08 07:49:59;;;;;;;0.00;0.00;;;24.10;99.90;;;;;;5004316;28;20235;-76
2022/06/08 07:52:26;;;;;;;0.00;0.00;;;24.60;99.90;;;;;;4997983;28;20235;-76
2022/06/08 07:54:56;;;;;;;0.00;0.00;;;;;;;;;;4999339;28;20201;-76
2022/06/08 07:57:25;;;;;;;0.00;0.00;;;;;;;;;;4992146;28;20202;-76
2022/06/08 07:59:54;;;;;;;0.00;0.00;;;24.80;99.90;;;;;;4992911;28;20197;-77
2022/06/08 08:02:21;;;;;;;0.00;0.00;;;25.00;99.90;;;;;;4994368;28;20225;-76
2022/06/08 08:04:48;;;;;;;0.00;0.00;;;25.20;99.90;;;;;;4998195;28;20291;-76
2022/06/08 08:07:18;;;;;;;0.00;0.00;;;;;;;;;;4996753;28;20686;-78
2022/06/08 08:09:48;;;;;;;0.00;0.00;;;;;;;;;;4996986;28;20224;-76
2022/06/08 08:12:17;;;;;;;0.00;0.00;;;;;;;;;;4989491;28;20260;-77
2022/06/08 08:14:45;;;;;;;0.00;0.00;;;;;;;;;;5000547;28;20209;-77
2022/06/08 08:17:12;;;;;;;0.00;0.00;;;;;;;;;;4991553;28;20216;-77
2022/06/08 08:19:40;;;;;;;0.00;0.00;;;;;;;;;;5012246;28;20205;-77
2022/06/08 08:22:09;;;;;;;0.00;0.00;;;24.90;99.90;;;;;;4994685;28;20225;-77
2022/06/08 08:24:36;;;;;;;0.00;0.00;;;24.80;99.90;;;;;;4989779;28;20236;-76
2022/06/08 08:27:03;;;;;;;0.00;0.00;;;24.60;99.90;;;;;;5002910;28;20205;-77
2022/06/08 08:29:32;;;;;;;0.00;0.00;;;24.80;99.90;;;;;;4998969;28;20201;-76
2022/06/08 08:31:59;;;;;;;0.00;0.00;;;25.10;99.90;;;;;;4993148;28;20232;-77
2022/06/08 08:34:26;;;;;;;0.00;0.00;;;25.50;99.90;;;;;;4997779;28;20301;-77
2022/06/08 08:36:53;;;;;;;0.00;0.00;;;25.60;99.90;;;;;;5004704;28;20227;-77
2022/06/08 08:39:22;;;;;;;0.00;0.00;;;;;;;;;;4991575;28;20198;-76
2022/06/08 08:44:40;;;;;;;0.00;0.00;;;26.50;99.90;;;;;;5000261;28;20189;-76
2022/06/08 08:47:12;;;;;;;0.00;0.00;;;;;;;;;;4994386;28;20197;-77
2022/06/08 08:49:41;;;;;;;0.00;0.00;;;;;;;;;;4998158;28;20193;-77
2022/06/08 08:52:15;;;;;;;0.00;0.00;;;;;;;;;;4993595;28;20229;-76
2022/06/08 08:54:47;;;;;;;0.00;0.00;;;;;;;;;;5001636;28;20208;-76
2022/06/08 08:57:17;;;;;;;0.00;0.00;;;;;;;;;;4995959;28;20209;-77
2022/06/08 08:59:48;;;;;;;0.00;0.00;;;;;;;;;;4992784;28;20251;-77
2022/06/08 09:03:14;;;;;;;0.00;0.00;;;;;;;;;;5000448;28;20224;-77
2022/06/08 09:05:11;;;;;;;0.00;0.00;;;;;;;;;;5003565;28;20264;-77
2022/06/08 09:07:38;;;;;;;0.00;0.00;;;;;;;;;;4987541;28;20236;-77
2022/06/08 09:10:07;;;;;;;0.00;0.00;;;;;;;;;;4995667;28;20201;-77
2022/06/08 09:12:34;;;;;;;0.00;0.00;;;;;;;;;;4994504;28;20225;-77
2022/06/08 09:15:03;;;;;;;0.00;0.00;;;;;;;;;;4998277;28;20241;-77
2022/06/08 09:17:34;;;;;;;0.00;0.00;;;;;;;;;;4994517;28;20267;-77
2022/06/08 09:20:03;;;;;;;0.00;0.00;;;;;;;;;;4994150;28;20294;-76
2022/06/08 09:22:32;;;;;;;0.00;0.00;;;;;;;;;;5000700;28;20217;-76
2022/06/08 09:25:01;;;;;;;0.00;0.00;;;;;;;;;;4992416;28;20205;-76
2022/06/08 09:27:29;;;;;;;0.00;0.00;;;;;;;;;;4990394;28;20202;-76
2022/06/08 09:30:03;;;;;;;0.00;0.00;;;;;;;;;;4994396;28;20260;-76
2022/06/08 09:32:34;;;;;;;0.00;0.00;;;;;;;;;;4998471;28;20228;-76
2022/06/08 09:35:03;;;;;;;0.00;0.00;;;;;;;;;;4998263;28;20263;-76
2022/06/08 09:37:31;;;;;;;0.00;0.00;;;;;;;;;;4992906;28;20256;-77
2022/06/08 09:39:59;;;;;;;0.00;0.00;;;;;;;;;;4996214;28;20204;-77
2022/06/08 09:42:36;;;;;;;0.00;0.00;;;;;;;;;;5001219;28;20220;-76
2022/06/08 09:45:07;;;;;;;0.00;0.00;;;;;;;;;;4990584;28;20212;-76
2022/06/08 09:53:20;;;;;;;0.00;0.00;;;;;;;;;;4996656;28;20270;-76
2022/06/08 09:55:56;;;;;;;0.00;0.00;;;;;;;;;;4994188;28;20212;-76
2022/06/08 09:58:33;;;;;;;0.00;0.00;;;;;;;;;;4987157;28;20232;-77
2022/06/08 10:01:06;;;;;;;0.00;0.00;;;;;;;;;;4994778;28;20310;-76
2022/06/08 10:03:40;;;;;;;0.00;0.00;;;;;;;;;;4994505;28;20296;-76
2022/06/08 10:06:11;;;;;;;0.00;0.00;;;;;;;;;;4996190;28;20196;-77
2022/06/08 10:08:45;;;;;;;0.00;0.00;;;;;;;;;;4990457;28;20193;-76
2022/06/08 10:13:59;;;;;;;0.00;0.00;;;;;;;;;;4999486;28;20220;-76
2022/06/08 10:16:29;;;;;;;0.00;0.00;;;;;;;;;;4998768;28;20212;-76
2022/06/08 10:19:00;;;;;;;0.00;0.00;;;;;;;;;;5000264;28;20326;-76
2022/06/08 10:21:30;;;;;;;0.00;0.00;;;;;;;;;;5002981;28;20209;-76
2022/06/08 10:24:00;;;;;;;0.00;0.00;;;;;;;;;;4999054;28;20197;-77
2022/06/08 10:26:31;;;;;;;0.00;0.00;;;;;;;;;;4999388;28;20324;-76
2022/06/08 10:29:03;;;;;;;0.00;0.00;;;;;;;;;;4993750;28;20201;-77
2022/06/08 10:31:34;;;;;;;0.00;0.00;;;;;;;;;;5002218;28;20224;-76
2022/06/08 10:34:05;;;;;;;0.00;0.00;;;;;;;;;;4992420;28;20248;-77
2022/06/08 10:36:34;;;;;;;0.00;0.00;;;;;;;;;;4993255;28;20200;-77
2022/06/08 10:39:02;;;;;;;0.00;0.00;;;;;;;;;;4995622;28;20677;-78
2022/06/08 10:44:33;;;;;;;0.00;0.00;;;;;;;;;;4995607;28;20287;-77
2022/06/08 10:47:18;;;;;;;0.00;0.00;;;;;;;;;;4992078;28;20205;-77
2022/06/08 10:49:51;;;;;;;0.00;0.00;;;;;;;;;;4989200;28;20315;-77
2022/06/08 10:52:28;;;;;;;0.00;0.00;;;;;;;;;;4997473;28;20336;-77
2022/06/08 10:54:55;;;;;;;0.00;0.00;;;;;;;;;;4997051;28;20223;-77
2022/06/08 10:57:49;;;;;;;0.00;0.00;;;;;;;;;;4995739;28;20203;-77
2022/06/08 11:00:31;;;;;;;0.00;0.00;;;;;;;;;;4996055;28;20216;-77
2022/06/08 11:03:02;;;;;;;0.00;0.00;;;;;;;;;;4987825;28;20201;-78
2022/06/08 11:05:32;;;;;;;0.00;0.00;;;;;;;;;;4992473;28;20248;-77
2022/06/08 11:08:20;;;;;;;0.00;0.00;;;;;;;;;;5002468;28;20197;-77
2022/06/08 11:10:53;;;;;;;0.00;0.00;;;;;;;;;;4998787;28;20736;-77
2022/06/08 11:13:24;;;;;;;0.00;0.00;;;;;;;;;;4998844;28;20236;-77
2022/06/08 11:15:55;;;;;;;0.00;0.00;;;;;;;;;;5004646;28;20239;-77
2022/06/08 11:18:27;;;;;;;0.00;0.00;;;;;;;;;;5001538;28;20197;-78
2022/06/08 11:21:04;;;;;;;0.00;0.00;;;;;;;;;;5000099;28;20228;-77
2022/06/08 11:23:34;;;;;;;0.00;0.00;;;;;;;;;;4999952;28;20225;-77
2022/06/08 11:26:14;;;;;;;0.00;0.00;;;;;;;;;;5000195;28;20236;-77
2022/06/08 11:28:44;;;;;;;0.00;0.00;;;;;;;;;;4998058;28;20771;-77
2022/06/08 11:31:13;;;;;;;0.00;0.00;;;;;;;;;;5000733;28;20319;-78
2022/06/08 11:33:49;;;;;;;0.00;0.00;;;;;;;;;;4993026;28;20232;-77
2022/06/08 11:36:30;;;;;;;0.00;0.00;;;;;;;;;;4990284;28;20303;-77
2022/06/08 11:39:01;;;;;;;0.00;0.00;;;;;;;;;;4993815;28;20208;-77
2022/06/08 11:41:38;;;;;;;0.00;0.00;;;;;;;;;;5000890;28;20268;-77
2022/06/08 11:44:13;;;;;;;0.00;0.00;;;;;;;;;;5000611;28;20231;-77
2022/06/08 11:46:42;;;;;;;0.00;0.00;;;;;;;;;;4998850;28;20302;-77
2022/06/08 11:49:24;;;;;;;0.00;0.00;;;;;;;;;;4993898;28;20216;-77
2022/06/08 11:51:53;;;;;;;0.00;0.00;;;;;;;;;;4997025;28;20307;-77
2022/06/08 11:54:25;;;;;;;0.00;0.00;;;;;;;;;;5017539;28;20911;-77
2022/06/08 11:56:56;;;;;;;0.00;0.00;;;;;;;;;;4990682;28;20201;-77
2022/06/08 11:59:24;;;;;;;0.00;0.00;;;;;;;;;;4995560;28;20209;-77
2022/06/08 12:01:53;;;;;;;0.00;0.00;;;;;;;;;;4995249;28;20220;-77
2022/06/08 12:04:22;;;;;;;0.00;0.00;;;;;;;;;;5000048;28;20295;-76
2022/06/08 12:06:50;;;;;;;0.00;0.00;;;;;;;;;;4997198;28;20259;-77
2022/06/08 12:09:21;;;;;;;0.00;0.00;;;;;;;;;;4995997;28;20204;-77
2022/06/08 12:11:50;;;;;;;0.00;0.00;;;;;;;;;;5002816;28;20228;-77
2022/06/08 12:14:18;;;;;;;0.00;0.00;;;;;;;;;;4996439;28;20260;-78
2022/06/08 12:16:54;;;;;;;0.00;0.00;;;;;;;;;;5000020;28;20284;-77
2022/06/08 12:19:22;;;;;;;0.00;0.00;;;;;;;;;;5003701;28;20207;-77
2022/06/08 12:21:51;;;;;;;0.00;0.00;;;;;;;;;;5001275;28;20221;-77
2022/06/08 12:24:24;;;;;;;0.00;0.00;;;;;;;;;;4997267;28;20192;-76
2022/06/08 12:26:58;;;;;;;0.00;0.00;;;;;;;;;;4995304;28;20193;-76
2022/06/08 12:29:32;;;;;;;0.00;0.00;;;;;;;;;;4993927;28;20199;-77
2022/06/08 12:32:04;;;;;;;0.00;0.00;;;;;;;;;;4996213;28;20252;-76
2022/06/08 12:34:36;;;;;;;0.00;0.00;;;;;;;;;;4994457;28;20312;-75
2022/06/08 12:37:22;;;;;;;0.00;0.00;;;;;;;;;;4991791;28;20288;-74
2022/06/08 12:39:51;;;;;;;0.00;0.00;;;;;;;;;;5001688;28;20209;-77
2022/06/08 12:42:26;;;;;;;0.00;0.00;;;;;;;;;;4994521;28;20311;-76
2022/06/08 12:44:53;;;;;;;0.00;0.00;;;;;;;;;;4996132;28;20196;-76
2022/06/08 12:47:22;;;;;;;0.00;0.00;;;;;;;;;;4992647;28;20459;-76
2022/06/08 12:49:51;;;;;;;0.00;0.00;;;;;;;;;;4989414;28;20205;-76
2022/06/08 12:52:21;;;;;;;0.00;0.00;;;;;;;;;;4998154;28;20332;-77
2022/06/08 12:54:49;;;;;;;0.00;0.00;;;;;;;;;;4987288;28;20302;-76
2022/06/08 12:57:19;;;;;;;0.00;0.00;;;;;;;;;;4989817;28;20235;-76
2022/06/08 12:59:48;;;;;;;0.00;0.00;;;;;;;;;;4999051;28;20220;-76
2022/06/08 13:02:16;;;;;;;0.00;0.00;;;;;;;;;;4999952;28;20316;-76
2022/06/08 13:04:44;;;;;;;0.00;0.00;;;;;;;;;;4997349;28;20197;-76
2022/06/08 13:07:13;;;;;;;0.00;0.00;;;;;;;;;;4992704;28;20212;-76
2022/06/08 13:09:41;;;;;;;0.00;0.00;;;;;;;;;;5000877;28;20209;-76
2022/06/08 13:12:11;;;;;;;0.00;0.00;;;;;;;;;;5001331;28;20217;-77
2022/06/08 13:14:41;;;;;;;0.00;0.00;;;;;;;;;;4996620;28;20221;-77
2022/06/08 13:17:10;;;;;;;0.00;0.00;;;;;;;;;;4997250;28;20231;-77
2022/06/08 13:19:37;;;;;;;0.00;0.00;;;;;;;;;;5002008;28;20692;-77
2022/06/08 13:22:05;;;;;;;0.00;0.00;;;;;;;;;;4997599;28;20229;-77
2022/06/08 13:24:33;;;;;;;0.00;0.00;;;;;;;;;;4992532;28;20201;-77
2022/06/08 13:27:01;;;;;;;0.00;0.00;;;;;;;;;;4997023;28;20229;-77
2022/06/08 13:29:29;;;;;;;0.00;0.00;;;;;;;;;;4995350;28;20231;-77
2022/06/08 13:31:59;;;;;;;0.00;0.00;;;;;;;;;;4995379;28;20221;-78
2022/06/08 13:34:26;;;;;;;0.00;0.00;;;;;;;;;;4991941;28;20217;-78
2022/06/08 13:36:54;;;;;;;0.00;0.00;;;;;;;;;;4993560;28;20201;-77
2022/06/08 13:39:27;;;;;;;0.00;0.00;;;;;;;;;;5011183;28;20208;-78
2022/06/08 13:41:55;;;;;;;0.00;0.00;;;;;;;;;;4992009;28;20241;-77
2022/06/08 13:44:25;;;;;;;0.00;0.00;;;;;;;;;;4997641;28;20197;-77
2022/06/08 13:46:56;;;;;;;0.00;0.00;;;;;;;;;;4995894;28;20221;-76
2022/06/08 13:49:25;;;;;;;0.00;0.00;;;;;;;;;;4991912;28;20209;-76
2022/06/08 13:51:53;;;;;;;0.00;0.00;;;;;;;;;;4991688;28;20228;-76
2022/06/08 13:54:27;;;;;;;0.00;0.00;;;;;;;;;;5000824;28;20251;-75
2022/06/08 13:56:54;;;;;;;0.00;0.00;;;;;;;;;;5001252;28;20232;-77
2022/06/08 13:59:22;;;;;;;0.00;0.00;;;;;;;;;;4996607;28;20257;-77
2022/06/08 14:01:50;;;;;;;0.00;0.00;;;;;;;;;;4998883;28;20223;-76
2022/06/08 14:04:19;;;;;;;0.00;0.00;;;;;;;;;;4995099;28;20205;-75
2022/06/08 14:15:03;;;;;;;0.00;0.00;;;;;;;;;;4991260;28;20216;-75